createdAt,value
2023-09-24T01:00:42.893Z,0.60
2023-09-24T01:03:37.343Z,0.20
2023-09-24T01:12:07.343Z,0.20
2023-09-24T01:14:45.011Z,0.55
2023-09-24T01:17:21.493Z,0.52
2023-09-24T01:20:01.925Z,0.50
2023-09-24T01:28:03.176Z,0.20
2023-09-24T01:31:21.031Z,0.20
2023-09-24T01:33:58.413Z,0.30
2023-09-24T01:39:46.732Z,0.35
2023-09-24T01:42:25.403Z,0.40
2023-09-24T01:48:05.403Z,0.20
2023-09-24T01:52:29.512Z,0.38
2023-09-24T01:53:57.112Z,0.60
2023-09-24T01:56:26.429Z,0.40
2023-09-24T01:59:01.298Z,0.40
2023-09-24T02:01:37.417Z,0.25
2023-09-24T02:04:50.984Z,0.80
2023-09-24T02:07:25.626Z,0.45
2023-09-24T02:10:13.821Z,0.40
2023-09-24T02:12:59.699Z,0.63
2023-09-24T02:15:28.638Z,0.40
2023-09-24T02:17:58.961Z,0.30
2023-09-24T02:20:32.717Z,0.47
2023-09-24T02:23:06.826Z,0.40
2023-09-24T02:25:46.381Z,0.20
2023-09-24T02:28:51.745Z,0.17
2023-09-24T02:31:30.681Z,0.30
2023-09-24T02:34:14.590Z,0.50
2023-09-24T02:36:43.306Z,0.38
2023-09-24T02:39:41.398Z,0.17
2023-09-24T02:45:08.412Z,0.40
2023-09-24T02:47:45.455Z,0.30
2023-09-24T02:50:48.843Z,0.22
2023-09-24T02:56:26.899Z,0.35
2023-09-24T02:59:16.338Z,0.50
2023-09-24T03:01:56.929Z,0.40
2023-09-24T03:07:29.747Z,0.25
2023-09-24T03:10:09.938Z,0.30
2023-09-24T03:12:50.209Z,0.65
2023-09-24T03:15:23.527Z,0.30
2023-09-24T03:18:04.820Z,0.30
2023-09-24T03:23:30.097Z,0.35
2023-09-24T03:26:10.602Z,0.40
2023-09-24T03:29:06.967Z,0.40
2023-09-24T03:34:47.466Z,0.40
2023-09-24T03:37:42.548Z,0.32
2023-09-24T03:43:44.901Z,0.40
2023-09-24T03:46:27.767Z,0.50
2023-09-24T03:49:06.507Z,0.40
2023-09-24T03:51:37.317Z,0.50
2023-09-24T04:03:04.359Z,0.22
2023-09-24T04:05:51.152Z,0.45
2023-09-24T04:11:25.895Z,0.47
2023-09-24T04:14:11.387Z,0.50
2023-09-24T04:36:09.513Z,0.15
2023-09-24T04:55:49.863Z,0.30
2023-09-24T04:59:08.179Z,0.47
2023-09-24T05:04:47.932Z,0.35
2023-09-24T05:10:27.188Z,0.38
2023-09-24T05:19:33.380Z,0.45
2023-09-24T05:25:19.644Z,0.40
2023-09-24T05:34:24.598Z,0.10
2023-09-24T05:43:53.506Z,0.20
2023-09-24T05:46:33.867Z,0.28
2023-09-24T05:56:06.516Z,0.43
2023-09-24T05:59:15.802Z,0.40
2023-09-24T06:02:01.495Z,0.30
2023-09-24T06:04:50.935Z,0.32
2023-09-24T06:07:27.937Z,0.30
2023-09-24T06:10:14.847Z,0.17
2023-09-24T06:16:27.615Z,0.10
2023-09-24T06:19:04.010Z,0.40
2023-09-24T06:28:04.705Z,0.30
2023-09-24T06:30:44.749Z,0.28
2023-09-24T06:33:33.185Z,0.30
2023-09-24T06:36:06.976Z,0.17
2023-09-24T06:38:52.315Z,0.40
2023-09-24T06:41:28.949Z,0.28
2023-09-24T06:47:19.372Z,0.45
2023-09-24T06:50:05.355Z,0.50
2023-09-24T06:52:49.841Z,0.80
2023-09-24T07:01:27.783Z,1.00
2023-09-24T07:33:03.679Z,1.45
2023-09-24T07:39:06.856Z,2.20
2023-09-24T07:51:14.402Z,1.70
2023-09-24T08:17:22.994Z,1.35
2023-09-24T08:20:38.461Z,1.38
2023-09-24T08:23:17.413Z,1.60
2023-09-24T08:26:05.446Z,1.83
2023-09-24T08:28:52.517Z,1.60
2023-09-24T08:31:26.137Z,1.25
2023-09-24T08:36:47.026Z,1.65
2023-09-24T08:44:51.154Z,1.40
2023-09-24T08:47:25.783Z,1.73
2023-09-24T08:49:57.147Z,1.90
2023-09-24T08:52:28.009Z,1.73
2023-09-24T09:01:00.162Z,2.35
2023-09-24T09:03:33.613Z,1.65
2023-09-24T09:10:46.562Z,2.63
2023-09-24T09:16:11.446Z,2.10
2023-09-24T16:09:44.321Z,0.55
2023-09-24T16:12:14.388Z,0.20
2023-09-24T16:14:50.437Z,0.50
2023-09-24T16:17:55.743Z,0.80
2023-09-24T16:20:19.209Z,0.40
2023-09-24T16:25:56.879Z,0.50
2023-09-24T16:28:24.580Z,0.50
2023-09-24T16:34:26.361Z,0.65
2023-09-24T16:37:03.439Z,0.50
2023-09-24T16:39:34.694Z,0.40
2023-09-24T16:42:05.145Z,0.40
2023-09-24T16:44:34.691Z,0.40
2023-09-24T16:47:05.775Z,0.60
2023-09-24T16:49:33.436Z,0.50
2023-09-24T16:52:05.496Z,0.90
2023-09-24T16:54:33.111Z,0.70
2023-09-24T16:57:08.835Z,0.50
2023-09-24T16:59:55.436Z,0.30
2023-09-24T17:02:27.972Z,0.40
2023-09-24T17:05:26.070Z,0.50
2023-09-24T17:07:56.194Z,0.40
2023-09-24T17:10:30.814Z,0.45
2023-09-24T17:12:58.628Z,0.45
2023-09-24T17:15:36.814Z,0.40
2023-09-24T17:18:12.020Z,0.40
2023-09-24T17:20:50.747Z,0.40
2023-09-24T17:23:18.394Z,0.40
2023-09-24T17:25:48.925Z,0.65
2023-09-24T17:28:19.770Z,0.40
2023-09-24T17:30:49.778Z,0.40
2023-09-24T17:33:19.470Z,0.40
2023-09-24T17:35:56.817Z,0.28
2023-09-24T17:38:44.011Z,0.50
2023-09-24T19:13:05.468Z,0.50
2023-09-24T19:18:07.246Z,0.40
2023-09-24T19:20:40.162Z,0.35
2023-09-24T19:25:41.951Z,0.30
2023-09-24T19:30:59.691Z,0.43
2023-09-24T19:33:31.280Z,0.73
2023-09-24T19:39:11.881Z,0.45
2023-09-24T19:41:55.227Z,0.57
2023-09-24T19:47:03.833Z,0.20
2023-09-24T19:49:34.172Z,0.50
2023-09-24T19:54:41.226Z,0.30
2023-09-24T19:57:11.636Z,0.40
2023-09-24T19:59:56.630Z,0.45
2023-09-24T20:02:34.468Z,0.40
2023-09-24T20:05:20.139Z,0.32
2023-09-24T20:07:51.593Z,0.40
2023-09-24T20:10:31.225Z,0.60
2023-09-24T20:16:18.004Z,0.30
2023-09-24T20:18:53.637Z,0.52
2023-09-24T20:21:57.521Z,0.40
2023-09-24T20:24:37.899Z,0.60
2023-09-24T20:27:17.323Z,0.50
2023-09-24T20:30:22.965Z,0.63
2023-09-24T20:32:55.970Z,0.40
2023-09-24T20:35:26.276Z,0.35
2023-09-24T20:38:06.501Z,0.60
2023-09-24T20:40:46.275Z,0.60
2023-09-24T20:43:53.281Z,0.30
2023-09-24T20:46:46.843Z,0.50
2023-09-24T20:49:25.648Z,0.40
2023-09-24T20:52:21.686Z,0.40
2023-09-24T20:54:49.165Z,0.50
2023-09-24T20:57:41.271Z,0.63
2023-09-24T21:00:14.257Z,0.30
2023-09-24T21:02:55.311Z,0.70
2023-09-24T21:05:25.970Z,0.55
2023-09-24T21:07:56.139Z,0.30
2023-09-24T21:10:35.497Z,0.30
2023-09-24T21:13:13.003Z,0.85
2023-09-24T21:15:41.545Z,0.50
2023-09-24T21:18:14.415Z,0.63
2023-09-24T21:21:19.961Z,0.55
2023-09-24T21:24:00.478Z,0.55
2023-09-24T21:29:40.171Z,0.43
2023-09-24T21:32:07.504Z,0.40
2023-09-24T21:35:00.762Z,0.40
2023-09-24T21:43:03.974Z,0.40
2023-09-24T21:45:55.436Z,0.55
2023-09-24T21:49:00.816Z,0.30
2023-09-24T21:51:48.913Z,0.40
2023-09-24T21:54:17.725Z,0.40
2023-09-24T21:56:44.929Z,0.68
2023-09-24T21:59:12.076Z,0.40
2023-09-24T22:02:23.606Z,0.40
2023-09-24T22:04:58.846Z,0.50
2023-09-24T22:07:51.759Z,0.45
2023-09-24T22:10:20.791Z,0.50
2023-09-24T22:12:48.335Z,0.40
2023-09-24T22:15:24.695Z,0.30
2023-09-24T22:17:52.153Z,0.40
2023-09-24T22:20:20.570Z,0.38
2023-09-24T22:23:14.549Z,0.30
2023-09-24T22:25:41.202Z,0.47
2023-09-24T22:28:20.157Z,0.20
2023-09-24T22:30:50.618Z,0.50
2023-09-24T22:33:21.441Z,0.32
2023-09-24T22:35:48.693Z,0.20
2023-09-24T22:38:16.056Z,0.35
2023-09-24T22:40:49.392Z,0.32
2023-09-24T22:43:26.289Z,0.40
2023-09-24T22:46:05.668Z,0.40
2023-09-24T22:48:32.897Z,0.47
2023-09-24T22:51:10.079Z,0.30
2023-09-24T22:53:46.759Z,0.57
2023-09-24T22:56:22.300Z,0.40
2023-09-24T22:58:49.849Z,0.40
2023-09-24T23:01:22.646Z,0.40
2023-09-24T23:03:52.691Z,0.35
2023-09-24T23:06:28.452Z,0.50
2023-09-24T23:08:59.825Z,0.30
2023-09-24T23:11:30.704Z,0.30
2023-09-24T23:17:22.840Z,0.45
2023-09-24T23:20:03.755Z,0.50
2023-09-24T23:22:45.968Z,0.30
2023-09-24T23:25:19.725Z,0.60
2023-09-24T23:27:53.023Z,0.30
2023-09-24T23:31:04.167Z,0.40
2023-09-24T23:33:36.828Z,0.40
2023-09-24T23:36:19.239Z,0.45
2023-09-24T23:38:53.086Z,0.50
2023-09-24T23:41:23.521Z,0.50
2023-09-24T23:44:41.304Z,0.20
2023-09-24T23:50:01.489Z,0.40
2023-09-24T23:52:41.022Z,0.40
2023-09-24T23:55:48.334Z,0.40
